createdAt,value
2023-04-19T00:00:09.552Z,-11179.47
2023-04-19T00:03:17.610Z,-11183.53
2023-04-19T00:06:24.797Z,-11183.97
2023-04-19T00:09:32.491Z,-11187.06
2023-04-19T00:12:38.904Z,-11187.91
2023-04-19T00:15:45.316Z,-11190.56
2023-04-19T00:18:51.840Z,-11189.03
2023-04-19T00:21:58.470Z,-11183.53
2023-04-19T00:25:06.911Z,-11185.22
2023-04-19T00:28:13.087Z,-11183.25
2023-04-19T00:31:19.495Z,-11189.72
2023-04-19T00:34:26.231Z,-11183.97
2023-04-19T00:37:32.522Z,-11176.22
2023-04-19T00:40:40.116Z,-11179.88
2023-04-19T00:43:46.799Z,-11181.84
2023-04-19T00:46:53.303Z,-11181.44
2023-04-19T00:49:59.447Z,-11178.75
2023-04-19T00:53:06.174Z,-11171.75
2023-04-19T00:56:15.743Z,-11177.06
2023-04-19T00:59:21.938Z,-11180.59
2023-04-19T01:02:29.241Z,-11176.22
2023-04-19T01:05:35.352Z,-11175.94
2023-04-19T01:08:41.531Z,-11183.13
2023-04-19T01:11:48.660Z,-11182.56
2023-04-19T01:14:55.067Z,-11177.63
2023-04-19T01:18:02.329Z,-11179.19
2023-04-19T01:21:09.978Z,-11178.75
2023-04-19T01:24:17.649Z,-11179.03
2023-04-19T01:27:24.242Z,-11178.75
2023-04-19T01:30:30.133Z,-11175.66
2023-04-19T01:33:36.453Z,-11179.19
2023-04-19T01:36:42.795Z,-11177.91
2023-04-19T01:39:50.488Z,-11184.94
2023-04-19T01:42:56.506Z,-11181.72
2023-04-19T01:46:02.748Z,-11178.63
2023-04-19T01:49:08.695Z,-11178.63
2023-04-19T01:52:14.732Z,-11184.09
2023-04-19T01:55:22.373Z,-11184.09
2023-04-19T01:58:28.460Z,-11186.50
2023-04-19T02:01:34.556Z,-11185.66
2023-04-19T02:04:40.693Z,-11190.44
2023-04-19T02:07:46.460Z,-11192.97
2023-04-19T02:10:54.345Z,-11182.13
2023-04-19T02:14:00.314Z,-11186.34
2023-04-19T02:17:06.433Z,-11193.94
2023-04-19T02:20:12.811Z,-11184.38
2023-04-19T02:23:19.111Z,-11187.19
2023-04-19T02:26:26.937Z,-11192.25
2023-04-19T02:29:34.479Z,-11181.16
2023-04-19T02:32:40.940Z,-11175.38
2023-04-19T02:35:46.950Z,-11182.84
2023-04-19T02:38:52.925Z,-11186.78
2023-04-19T02:42:01.281Z,-11185.66
2023-04-19T02:45:09.241Z,-11187.34
2023-04-19T02:48:15.247Z,-11189.88
2023-04-19T02:51:21.314Z,-11191.69
2023-04-19T02:54:27.255Z,-11191.13
2023-04-19T02:57:34.901Z,-11190.84
2023-04-19T03:00:40.975Z,-11178.75
2023-04-19T03:03:47.080Z,-11185.78
2023-04-19T03:06:54.062Z,-11187.19
2023-04-19T03:10:00.362Z,-11187.63
2023-04-19T03:13:07.793Z,-11178.19
2023-04-19T03:16:14.110Z,-11182.97
2023-04-19T03:19:20.152Z,-11182.41
2023-04-19T03:22:26.285Z,-11177.34
2023-04-19T03:25:33.405Z,-11172.88
2023-04-19T03:28:41.368Z,-11178.06
2023-04-19T03:31:47.385Z,-11182.84
2023-04-19T03:34:53.607Z,-11171.88
2023-04-19T03:37:59.776Z,-11182.13
2023-04-19T03:41:06.404Z,-11179.03
2023-04-19T03:44:14.283Z,-11175.25
2023-04-19T03:47:20.970Z,-11176.22
2023-04-19T03:50:27.193Z,-11181.84
2023-04-19T03:53:33.453Z,-11183.53
2023-04-19T03:56:39.476Z,-11182.41
2023-04-19T03:59:46.580Z,-11180.03
2023-04-19T04:02:52.621Z,-11176.94
2023-04-19T04:05:58.861Z,-11180.72
2023-04-19T04:09:05.727Z,-11181.56
2023-04-19T04:12:13.106Z,-11182.13
2023-04-19T04:15:20.603Z,-11178.06
2023-04-19T04:18:27.211Z,-11176.78
2023-04-19T04:21:33.509Z,-11176.94
2023-04-19T04:24:41.573Z,-11181.28
2023-04-19T04:27:48.558Z,-11182.28
2023-04-19T04:30:57.538Z,-11179.31
2023-04-19T04:34:03.850Z,-11180.16
2023-04-19T04:37:10.524Z,-11175.94
2023-04-19T04:40:17.005Z,-11180.88
2023-04-19T04:43:24.136Z,-11178.75
2023-04-19T04:46:31.576Z,-11186.63
2023-04-19T04:49:37.716Z,-11173.16
2023-04-19T04:52:43.821Z,-11177.34
2023-04-19T04:55:50.106Z,-11178.34
2023-04-19T04:58:57.268Z,-11179.31
2023-04-19T05:02:04.914Z,-11181.72
2023-04-19T05:05:12.466Z,-11180.44
2023-04-19T05:08:18.839Z,-11189.72
2023-04-19T05:11:24.835Z,-11188.03
2023-04-19T05:14:30.816Z,-11186.63
2023-04-19T05:17:38.183Z,-11187.75
2023-04-19T05:20:46.876Z,-11190.72
2023-04-19T05:23:53.800Z,-11191.97
2023-04-19T05:26:59.890Z,-11191.41
2023-04-19T05:30:07.537Z,-11196.75
2023-04-19T05:33:14.760Z,-11196.75
2023-04-19T05:36:21.115Z,-11195.50
2023-04-19T05:39:27.676Z,-11196.47
2023-04-19T05:42:34.144Z,-11206.03
2023-04-19T05:45:40.681Z,-11209.56
2023-04-19T05:48:48.331Z,-11195.78
2023-04-19T05:51:55.647Z,-11203.78
2023-04-19T05:55:02.962Z,-11200.97
2023-04-19T05:58:09.387Z,-11203.66
2023-04-19T06:01:15.616Z,-11232.47
2023-04-19T06:04:24.073Z,-11208.72
2023-04-19T06:07:40.053Z,-11213.22
2023-04-19T06:10:54.978Z,-11206.03
2023-04-19T06:14:04.469Z,-11205.63
2023-04-19T06:17:11.022Z,-11203.50
2023-04-19T06:20:18.756Z,-11222.34
2023-04-19T06:23:25.609Z,-11209.97
2023-04-19T06:26:32.057Z,-11215.59
2023-04-19T06:29:38.432Z,-11225.59
2023-04-19T06:32:45.013Z,-11218.13
2023-04-19T06:35:52.731Z,-11220.25
2023-04-19T06:38:58.822Z,-11226.00
2023-04-19T06:42:05.630Z,-11242.47
2023-04-19T06:45:13.224Z,-11259.50
2023-04-19T06:48:19.521Z,-11245.16
2023-04-19T06:51:27.100Z,-11254.84
2023-04-19T06:54:33.464Z,-11259.34
2023-04-19T06:57:39.454Z,-11245.72
2023-04-19T07:00:45.506Z,-11261.19
2023-04-19T07:03:51.850Z,-11234.31
2023-04-19T07:07:00.384Z,-11253.31
2023-04-19T07:10:07.241Z,-11246.28
2023-04-19T07:13:13.377Z,-11235.31
2023-04-19T07:16:19.547Z,-11233.75
2023-04-19T07:19:26.340Z,-11243.59
2023-04-19T07:22:34.220Z,-11236.44
2023-04-19T07:25:40.577Z,-11260.06
2023-04-19T07:28:47.142Z,-11230.94
2023-04-19T07:31:55.495Z,-11253.59
2023-04-19T07:35:01.951Z,-11248.94
2023-04-19T07:38:09.377Z,-11259.91
2023-04-19T07:41:15.805Z,-11229.94
2023-04-19T07:44:21.966Z,-11262.59
2023-04-19T07:47:28.509Z,-11284.13
2023-04-19T07:50:34.650Z,-11274.84
2023-04-19T07:53:43.411Z,-11268.50
2023-04-19T07:56:49.632Z,-11287.63
2023-04-19T07:59:58.442Z,-11280.03
2023-04-19T08:03:05.551Z,-11271.88
2023-04-19T08:06:14.360Z,-11271.88
2023-04-19T08:09:22.285Z,-11262.88
2023-04-19T08:12:35.651Z,-11282.84
2023-04-19T08:18:54.227Z,-11317.78
2023-04-19T08:22:00.353Z,-11336.94
2023-04-19T08:25:09.543Z,-11318.47
2023-04-19T08:28:15.736Z,-11325.38
2023-04-19T08:31:22.262Z,-11366.50
2023-04-19T08:34:28.464Z,-11363.53
2023-04-19T08:37:34.605Z,-11396.25
2023-04-19T08:40:47.769Z,-11381.16
2023-04-19T08:43:56.323Z,-11398.91
2023-04-19T08:47:02.406Z,-11387.06
2023-04-19T08:50:24.025Z,-11361.56
2023-04-19T08:53:36.429Z,-11335.09
2023-04-19T08:56:44.306Z,-11385.09
2023-04-19T08:59:55.749Z,-11361.44
2023-04-19T09:03:02.092Z,-11375.53
2023-04-19T09:06:09.498Z,-11405.53
2023-04-19T09:12:28.400Z,-11363.97
2023-04-19T09:15:39.760Z,-11365.66
2023-04-19T09:19:02.368Z,-11340.31
2023-04-19T09:22:18.055Z,-11335.50
2023-04-19T09:28:37.689Z,-11356.38
2023-04-19T09:31:58.475Z,-11323.41
2023-04-19T09:35:04.878Z,-11343.13
2023-04-19T09:38:12.082Z,-11346.38
2023-04-19T09:41:18.966Z,-11377.06
2023-04-19T09:47:35.937Z,-11374.97
2023-04-19T09:51:02.310Z,-11374.25
2023-04-19T09:54:12.026Z,-11362.84
2023-04-19T09:57:18.245Z,-11382.44
2023-04-19T10:00:28.267Z,-11365.81
2023-04-19T10:03:36.260Z,-11366.09
2023-04-19T10:06:58.815Z,-11351.44
2023-04-19T10:10:19.654Z,-11376.38
2023-04-19T10:13:27.601Z,-11381.16
2023-04-19T10:16:35.974Z,-11341.16
2023-04-19T10:19:43.131Z,-11377.91
2023-04-19T10:22:49.376Z,-11383.41
2023-04-19T10:25:57.961Z,-11383.41
2023-04-19T10:29:03.982Z,-11397.50
2023-04-19T10:32:14.894Z,-11415.12
2023-04-19T10:35:23.297Z,-11411.47
2023-04-19T10:38:40.545Z,-11396.38
2023-04-19T10:41:59.505Z,-11382.84
2023-04-19T10:45:33.755Z,-11415.25
2023-04-19T10:48:44.244Z,-11412.88
2023-04-19T10:51:52.978Z,-11394.13
2023-04-19T10:54:58.853Z,-11397.50
2023-04-19T10:58:06.639Z,-11393.13
2023-04-19T11:01:33.986Z,-11391.16
2023-04-19T11:05:14.036Z,-11392.72
2023-04-19T11:08:24.637Z,-11404.28
2023-04-19T11:11:30.516Z,-11393.13
2023-04-19T11:14:38.150Z,-11387.34
2023-04-19T11:17:44.401Z,-11392.44
2023-04-19T11:20:55.871Z,-11399.19
2023-04-19T11:24:11.433Z,-11411.88
2023-04-19T11:27:17.445Z,-11422.31
2023-04-19T11:30:24.413Z,-11421.75
2023-04-19T11:33:34.711Z,-11435.69
2023-04-19T11:36:51.341Z,-11406.25
2023-04-19T11:39:57.271Z,-11404.69
2023-04-19T11:43:05.628Z,-11382.56
2023-04-19T11:46:13.515Z,-11388.19
2023-04-19T11:49:27.436Z,-11362.13
2023-04-19T11:52:36.979Z,-11364.53
2023-04-19T11:55:52.394Z,-11356.66
2023-04-19T11:58:59.659Z,-11361.72
2023-04-19T12:02:10.573Z,-11391.03
2023-04-19T12:05:17.783Z,-11420.63
2023-04-19T12:08:36.608Z,-11442.34
2023-04-19T12:11:46.948Z,-11415.12
2023-04-19T12:14:53.884Z,-11419.50
2023-04-19T12:18:02.127Z,-11416.53
2023-04-19T12:21:08.458Z,-11416.66
2023-04-19T12:24:17.979Z,-11401.72
2023-04-19T12:27:25.760Z,-11380.47
2023-04-19T12:30:32.363Z,-11396.38
2023-04-19T12:33:38.728Z,-11387.78
2023-04-19T12:36:45.119Z,-11386.78
2023-04-19T12:39:53.741Z,-11379.47
2023-04-19T12:43:01.974Z,-11369.88
2023-04-19T12:46:08.216Z,-11358.75
2023-04-19T12:49:14.479Z,-11357.63
2023-04-19T12:52:21.467Z,-11366.50
2023-04-19T12:55:29.214Z,-11362.28
2023-04-19T12:58:35.776Z,-11352.00
2023-04-19T13:01:42.248Z,-11350.44
2023-04-19T13:04:48.753Z,-11356.94
2023-04-19T13:07:54.828Z,-11338.75
2023-04-19T13:11:02.994Z,-11328.63
2023-04-19T13:14:09.094Z,-11347.06
2023-04-19T13:17:15.190Z,-11362.28
2023-04-19T13:20:21.302Z,-11356.66
2023-04-19T13:23:27.401Z,-11353.25
2023-04-19T13:26:35.698Z,-11338.63
2023-04-19T13:29:42.003Z,-11382.84
2023-04-19T13:32:48.034Z,-11336.94
2023-04-19T13:35:54.243Z,-11341.16
2023-04-19T13:39:00.894Z,-11339.03
2023-04-19T13:42:08.632Z,-11335.78
2023-04-19T13:45:15.803Z,-11354.38
2023-04-19T13:48:22.099Z,-11353.53
2023-04-19T13:51:38.801Z,-11327.91
2023-04-19T13:54:53.566Z,-11341.44
2023-04-19T13:58:01.139Z,-11333.41
2023-04-19T14:01:07.518Z,-11347.91
2023-04-19T14:04:13.916Z,-11347.34
2023-04-19T14:07:20.247Z,-11358.06
2023-04-19T14:10:26.130Z,-11347.50
2023-04-19T14:13:33.728Z,-11351.00
2023-04-19T14:16:39.663Z,-11360.31
2023-04-19T14:19:45.721Z,-11363.69
2023-04-19T14:22:52.095Z,-11358.19
2023-04-19T14:25:58.217Z,-11335.22
2023-04-19T14:29:06.648Z,-11335.09
2023-04-19T14:32:25.100Z,-11323.25
2023-04-19T14:35:32.184Z,-11341.28
2023-04-19T14:38:38.445Z,-11338.75
2023-04-19T14:41:44.449Z,-11330.31
2023-04-19T14:44:53.298Z,-11376.94
2023-04-19T14:47:59.452Z,-11356.78
2023-04-19T14:51:05.821Z,-11354.94
2023-04-19T14:54:11.800Z,-11331.00
2023-04-19T14:57:18.018Z,-11343.41
2023-04-19T15:00:25.760Z,-11327.63
2023-04-19T15:03:32.412Z,-11325.94
2023-04-19T15:06:38.845Z,-11328.75
2023-04-19T15:09:44.944Z,-11330.31
2023-04-19T15:12:50.896Z,-11327.06
2023-04-19T15:16:00.021Z,-11319.59
2023-04-19T15:19:07.705Z,-11309.03
2023-04-19T15:22:14.207Z,-11313.97
2023-04-19T15:25:20.268Z,-11317.50
2023-04-19T15:28:26.945Z,-11318.06
2023-04-19T15:31:35.044Z,-11312.41
2023-04-19T15:34:41.075Z,-11307.78
2023-04-19T15:37:48.601Z,-11296.78
2023-04-19T15:40:56.087Z,-11302.28
2023-04-19T15:44:02.671Z,-11289.75
2023-04-19T15:47:10.465Z,-11285.69
2023-04-19T15:50:16.673Z,-11279.34
2023-04-19T15:53:23.188Z,-11281.44
2023-04-19T15:56:29.246Z,-11282.00
2023-04-19T15:59:35.212Z,-11266.25
2023-04-19T16:02:42.803Z,-11258.38
2023-04-19T16:05:51.697Z,-11262.88
2023-04-19T16:08:57.955Z,-11254.84
2023-04-19T16:12:04.027Z,-11268.38
2023-04-19T16:15:10.781Z,-11269.78
2023-04-19T16:18:18.275Z,-11249.22
2023-04-19T16:21:24.369Z,-11264.16
2023-04-19T16:24:30.441Z,-11255.28
2023-04-19T16:27:36.739Z,-11245.00
2023-04-19T16:30:42.913Z,-11253.59
2023-04-19T16:33:50.456Z,-11250.50
2023-04-19T16:36:56.997Z,-11259.22
2023-04-19T16:40:07.177Z,-11257.38
2023-04-19T16:43:13.009Z,-11256.13
2023-04-19T16:46:19.253Z,-11252.88
2023-04-19T16:49:26.645Z,-11273.00
2023-04-19T16:52:35.356Z,-11262.03
2023-04-19T16:55:41.388Z,-11252.03
2023-04-19T16:58:47.539Z,-11246.84
2023-04-19T17:01:59.614Z,-11247.41
2023-04-19T17:05:10.033Z,-11248.38
2023-04-19T17:08:16.249Z,-11248.09
2023-04-19T17:11:22.241Z,-11246.13
2023-04-19T17:14:29.145Z,-11247.41
2023-04-19T17:17:35.228Z,-11247.69
2023-04-19T17:20:42.687Z,-11242.03
2023-04-19T17:23:49.090Z,-11234.31
2023-04-19T17:26:55.220Z,-11242.31
2023-04-19T17:30:01.426Z,-11245.16
2023-04-19T17:33:07.871Z,-11245.00
2023-04-19T17:36:15.932Z,-11246.00
2023-04-19T17:39:21.870Z,-11243.75
2023-04-19T17:42:28.031Z,-11243.75
2023-04-19T17:45:34.461Z,-11232.75
2023-04-19T17:48:40.894Z,-11228.97
2023-04-19T17:51:48.636Z,-11233.19
2023-04-19T17:54:54.969Z,-11227.97
2023-04-19T17:58:01.324Z,-11232.75
2023-04-19T18:01:08.970Z,-11230.50
2023-04-19T18:04:18.045Z,-11235.03
2023-04-19T18:07:26.028Z,-11234.47
2023-04-19T18:10:32.186Z,-11232.34
2023-04-19T18:13:38.141Z,-11231.78
2023-04-19T18:16:43.971Z,-11231.34
2023-04-19T18:19:50.085Z,-11231.78
2023-04-19T18:23:00.158Z,-11227.97
2023-04-19T18:26:06.483Z,-11224.31
2023-04-19T18:29:13.154Z,-11223.34
2023-04-19T18:32:19.236Z,-11211.94
2023-04-19T18:35:25.202Z,-11217.00
2023-04-19T18:38:33.123Z,-11216.88
2023-04-19T18:41:39.424Z,-11215.19
2023-04-19T18:44:53.522Z,-11214.47
2023-04-19T18:48:01.954Z,-11203.50
2023-04-19T18:51:10.275Z,-11206.88
2023-04-19T18:54:17.539Z,-11202.09
2023-04-19T18:57:27.069Z,-11204.34
2023-04-19T19:00:33.856Z,-11205.19
2023-04-19T19:04:07.832Z,-11210.13
2023-04-19T19:07:18.128Z,-11204.91
2023-04-19T19:10:58.858Z,-11198.03
2023-04-19T19:13:59.896Z,-11201.53
2023-04-19T19:17:07.180Z,-11202.81
2023-04-19T19:20:13.776Z,-11202.81
2023-04-19T19:23:20.558Z,-11203.78
2023-04-19T19:26:39.295Z,-11205.91
2023-04-19T19:29:46.997Z,-11203.22
2023-04-19T19:32:53.134Z,-11203.78
2023-04-19T19:35:59.557Z,-11203.78
2023-04-19T19:39:05.836Z,-11200.84
2023-04-19T19:42:14.282Z,-11202.09
2023-04-19T19:45:20.600Z,-11200.97
2023-04-19T19:48:29.925Z,-11203.50
2023-04-19T19:51:56.841Z,-11199.28
2023-04-19T19:55:02.816Z,-11197.31
2023-04-19T19:58:39.273Z,-11186.06
2023-04-19T20:01:37.511Z,-11182.13
2023-04-19T20:04:44.021Z,-11190.56
2023-04-19T20:10:59.876Z,-11187.75
2023-04-19T20:14:07.667Z,-11196.19
2023-04-19T20:17:13.902Z,-11193.53
2023-04-19T20:20:21.032Z,-11183.13
2023-04-19T20:23:27.290Z,-11187.47
2023-04-19T20:26:33.907Z,-11187.75
2023-04-19T20:29:41.275Z,-11193.25
2023-04-19T20:32:48.595Z,-11192.81
2023-04-19T20:35:55.546Z,-11182.41
2023-04-19T20:39:06.569Z,-11185.50
2023-04-19T20:42:12.965Z,-11182.69
2023-04-19T20:45:21.020Z,-11180.72
2023-04-19T20:48:27.326Z,-11185.22
2023-04-19T20:51:33.481Z,-11181.00
2023-04-19T20:54:39.401Z,-11179.31
2023-04-19T20:57:45.774Z,-11179.31
2023-04-19T21:00:53.294Z,-11176.78
2023-04-19T21:03:59.629Z,-11174.81
2023-04-19T21:07:06.029Z,-11179.19
2023-04-19T21:10:13.842Z,-11172.44
2023-04-19T21:13:20.090Z,-11173.56
2023-04-19T21:16:27.729Z,-11156.69
2023-04-19T21:19:34.073Z,-11164.44
2023-04-19T21:22:40.847Z,-11160.34
2023-04-19T21:25:46.743Z,-11161.63
2023-04-19T21:28:53.148Z,-11171.75
2023-04-19T21:32:00.960Z,-11174.25
2023-04-19T21:35:08.460Z,-11166.69
2023-04-19T21:38:14.858Z,-11169.78
2023-04-19T21:41:21.023Z,-11177.91
2023-04-19T21:44:27.341Z,-11165.41
2023-04-19T21:47:34.991Z,-11175.09
2023-04-19T21:50:41.675Z,-11171.59
2023-04-19T21:53:47.897Z,-11165.56
2023-04-19T21:56:53.831Z,-11172.72
2023-04-19T21:59:59.795Z,-11176.66
2023-04-19T22:03:07.730Z,-11169.50
2023-04-19T22:06:17.196Z,-11155.16
2023-04-19T22:09:23.065Z,-11159.09
2023-04-19T22:12:29.436Z,-11161.06
2023-04-19T22:15:35.558Z,-11154.88
2023-04-19T22:18:43.320Z,-11156.28
2023-04-19T22:21:49.307Z,-11163.72
2023-04-19T22:24:58.033Z,-11158.81
2023-04-19T22:28:07.234Z,-11149.53
2023-04-19T22:31:13.888Z,-11157.69
2023-04-19T22:34:21.175Z,-11167.81
2023-04-19T22:37:27.280Z,-11168.78
2023-04-19T22:40:33.540Z,-11159.66
2023-04-19T22:43:39.683Z,-11170.19
2023-04-19T22:46:45.540Z,-11168.66
2023-04-19T22:49:53.219Z,-11167.25
2023-04-19T22:52:59.423Z,-11165.56
2023-04-19T22:56:06.053Z,-11166.69
2023-04-19T22:59:13.491Z,-11161.06
2023-04-19T23:02:19.816Z,-11166.41
2023-04-19T23:05:28.003Z,-11160.34
2023-04-19T23:08:34.816Z,-11157.97
2023-04-19T23:11:40.956Z,-11150.94
2023-04-19T23:14:48.570Z,-11151.91
2023-04-19T23:17:54.941Z,-11149.25
2023-04-19T23:21:02.325Z,-11152.34
2023-04-19T23:24:08.421Z,-11151.22
2023-04-19T23:27:14.884Z,-11151.06
2023-04-19T23:30:21.430Z,-11149.38
2023-04-19T23:33:27.361Z,-11147.13
2023-04-19T23:36:34.735Z,-11139.13
2023-04-19T23:39:41.238Z,-11145.31
2023-04-19T23:42:47.246Z,-11156.56
2023-04-19T23:45:53.537Z,-11150.94
2023-04-19T23:48:59.500Z,-11147.13
2023-04-19T23:52:07.025Z,-11158.09
2023-04-19T23:55:13.784Z,-11153.31
2023-04-19T23:58:19.964Z,-11153.31
